sensor_id;sensor_type;location;lat;lon;timestamp;P1;durP1;ratioP1;P2;durP2;ratioP2
61473;SDS011;53694;49.784;30.150;2024-03-02T00:00:54;54.02;;;27.67;;
61473;SDS011;53694;49.784;30.150;2024-03-02T00:01:55;53.82;;;28.94;;
61473;SDS011;53694;49.784;30.150;2024-03-02T00:02:57;51.34;;;29.21;;
61473;SDS011;53694;49.784;30.150;2024-03-02T00:03:58;54.75;;;30.49;;
61473;SDS011;53694;49.784;30.150;2024-03-02T00:05:00;54.44;;;29.54;;
61473;SDS011;53694;49.784;30.150;2024-03-02T00:06:01;55.45;;;27.84;;
61473;SDS011;53694;49.784;30.150;2024-03-02T00:07:03;60.44;;;29.33;;
61473;SDS011;53694;49.784;30.150;2024-03-02T00:08:05;53.65;;;28.55;;
61473;SDS011;53694;49.784;30.150;2024-03-02T00:09:08;57.33;;;29.49;;
61473;SDS011;53694;49.784;30.150;2024-03-02T00:10:13;56.69;;;29.10;;
61473;SDS011;53694;49.784;30.150;2024-03-02T00:11:19;61.73;;;29.86;;
61473;SDS011;53694;49.784;30.150;2024-03-02T00:12:21;58.76;;;30.91;;
61473;SDS011;53694;49.784;30.150;2024-03-02T00:13:22;60.01;;;30.43;;
61473;SDS011;53694;49.784;30.150;2024-03-02T00:14:24;65.37;;;31.86;;
61473;SDS011;53694;49.784;30.150;2024-03-02T00:16:47;54.47;;;31.02;;
61473;SDS011;53694;49.784;30.150;2024-03-02T00:17:55;59.93;;;30.99;;
61473;SDS011;53694;49.784;30.150;2024-03-02T00:19:01;67.29;;;33.26;;
61473;SDS011;53694;49.784;30.150;2024-03-02T00:20:04;58.74;;;32.28;;
61473;SDS011;53694;49.784;30.150;2024-03-02T00:21:09;60.46;;;32.04;;
61473;SDS011;53694;49.784;30.150;2024-03-02T00:22:11;55.83;;;29.01;;
61473;SDS011;53694;49.784;30.150;2024-03-02T00:23:14;53.93;;;25.62;;
61473;SDS011;53694;49.784;30.150;2024-03-02T00:24:30;50.51;;;25.35;;
61473;SDS011;53694;49.784;30.150;2024-03-02T00:25:41;45.77;;;24.09;;
61473;SDS011;53694;49.784;30.150;2024-03-02T00:26:45;48.22;;;23.92;;
61473;SDS011;53694;49.784;30.150;2024-03-02T00:27:47;56.65;;;26.37;;
61473;SDS011;53694;49.784;30.150;2024-03-02T00:28:49;53.15;;;27.06;;
61473;SDS011;53694;49.784;30.150;2024-03-02T00:29:52;50.30;;;26.64;;
61473;SDS011;53694;49.784;30.150;2024-03-02T00:30:58;54.98;;;27.40;;
61473;SDS011;53694;49.784;30.150;2024-03-02T00:32:01;58.04;;;28.99;;
61473;SDS011;53694;49.784;30.150;2024-03-02T00:33:05;51.76;;;29.03;;
61473;SDS011;53694;49.784;30.150;2024-03-02T00:34:09;56.46;;;31.18;;
61473;SDS011;53694;49.784;30.150;2024-03-02T00:35:13;56.68;;;29.46;;
61473;SDS011;53694;49.784;30.150;2024-03-02T00:36:15;58.09;;;30.60;;
61473;SDS011;53694;49.784;30.150;2024-03-02T00:37:19;60.20;;;30.29;;
61473;SDS011;53694;49.784;30.150;2024-03-02T00:38:20;55.17;;;31.09;;
61473;SDS011;53694;49.784;30.150;2024-03-02T00:39:22;55.52;;;31.06;;
61473;SDS011;53694;49.784;30.150;2024-03-02T00:40:26;60.93;;;31.17;;
61473;SDS011;53694;49.784;30.150;2024-03-02T00:41:32;58.52;;;30.86;;
61473;SDS011;53694;49.784;30.150;2024-03-02T00:42:33;58.36;;;31.81;;
61473;SDS011;53694;49.784;30.150;2024-03-02T00:44:49;57.37;;;31.04;;
61473;SDS011;53694;49.784;30.150;2024-03-02T00:45:50;59.35;;;31.16;;
61473;SDS011;53694;49.784;30.150;2024-03-02T00:46:52;58.11;;;30.47;;
61473;SDS011;53694;49.784;30.150;2024-03-02T00:47:54;55.80;;;29.44;;
61473;SDS011;53694;49.784;30.150;2024-03-02T00:48:59;57.97;;;30.93;;
61473;SDS011;53694;49.784;30.150;2024-03-02T00:50:02;61.24;;;30.21;;
61473;SDS011;53694;49.784;30.150;2024-03-02T00:51:05;61.07;;;31.24;;
61473;SDS011;53694;49.784;30.150;2024-03-02T00:52:06;62.82;;;30.44;;
61473;SDS011;53694;49.784;30.150;2024-03-02T00:53:11;68.10;;;32.39;;
61473;SDS011;53694;49.784;30.150;2024-03-02T00:54:13;61.00;;;32.01;;
61473;SDS011;53694;49.784;30.150;2024-03-02T00:55:15;65.25;;;31.59;;
61473;SDS011;53694;49.784;30.150;2024-03-02T00:56:17;61.48;;;30.36;;
61473;SDS011;53694;49.784;30.150;2024-03-02T00:57:19;62.81;;;30.69;;
61473;SDS011;53694;49.784;30.150;2024-03-02T00:58:20;62.21;;;31.37;;
61473;SDS011;53694;49.784;30.150;2024-03-02T00:59:22;54.14;;;26.94;;
61473;SDS011;53694;49.784;30.150;2024-03-02T01:00:24;49.19;;;25.67;;
61473;SDS011;53694;49.784;30.150;2024-03-02T01:01:26;43.39;;;23.23;;
61473;SDS011;53694;49.784;30.150;2024-03-02T01:02:27;49.69;;;23.21;;
61473;SDS011;53694;49.784;30.150;2024-03-02T01:03:29;41.71;;;22.49;;
61473;SDS011;53694;49.784;30.150;2024-03-02T01:04:32;47.43;;;24.16;;
61473;SDS011;53694;49.784;30.150;2024-03-02T01:05:33;47.14;;;25.22;;
61473;SDS011;53694;49.784;30.150;2024-03-02T01:06:35;43.76;;;25.27;;
61473;SDS011;53694;49.784;30.150;2024-03-02T01:07:38;49.30;;;25.99;;
61473;SDS011;53694;49.784;30.150;2024-03-02T01:08:39;52.91;;;27.63;;
61473;SDS011;53694;49.784;30.150;2024-03-02T01:09:41;51.81;;;27.36;;
61473;SDS011;53694;49.784;30.150;2024-03-02T01:10:42;48.01;;;27.48;;
61473;SDS011;53694;49.784;30.150;2024-03-02T01:11:44;57.46;;;28.25;;
61473;SDS011;53694;49.784;30.150;2024-03-02T01:12:46;51.19;;;29.16;;
61473;SDS011;53694;49.784;30.150;2024-03-02T01:13:47;54.92;;;28.29;;
61473;SDS011;53694;49.784;30.150;2024-03-02T01:14:49;53.90;;;28.98;;
61473;SDS011;53694;49.784;30.150;2024-03-02T01:15:50;57.86;;;28.95;;
61473;SDS011;53694;49.784;30.150;2024-03-02T01:16:52;50.51;;;28.72;;
61473;SDS011;53694;49.784;30.150;2024-03-02T01:17:54;55.05;;;29.76;;
61473;SDS011;53694;49.784;30.150;2024-03-02T01:18:55;56.80;;;28.79;;
61473;SDS011;53694;49.784;30.150;2024-03-02T01:19:57;60.52;;;31.32;;
61473;SDS011;53694;49.784;30.150;2024-03-02T01:20:59;52.90;;;29.77;;
61473;SDS011;53694;49.784;30.150;2024-03-02T01:22:00;57.16;;;31.35;;
61473;SDS011;53694;49.784;30.150;2024-03-02T01:23:02;61.28;;;30.21;;
61473;SDS011;53694;49.784;30.150;2024-03-02T01:24:04;59.13;;;30.58;;
61473;SDS011;53694;49.784;30.150;2024-03-02T01:25:06;58.92;;;31.17;;
61473;SDS011;53694;49.784;30.150;2024-03-02T01:26:09;62.28;;;30.64;;
61473;SDS011;53694;49.784;30.150;2024-03-02T01:27:11;52.15;;;29.27;;
61473;SDS011;53694;49.784;30.150;2024-03-02T01:28:12;62.16;;;30.41;;
61473;SDS011;53694;49.784;30.150;2024-03-02T01:29:14;59.75;;;30.75;;
61473;SDS011;53694;49.784;30.150;2024-03-02T01:30:15;63.99;;;31.09;;
61473;SDS011;53694;49.784;30.150;2024-03-02T01:31:17;50.44;;;25.61;;
61473;SDS011;53694;49.784;30.150;2024-03-02T01:32:19;49.71;;;23.76;;
61473;SDS011;53694;49.784;30.150;2024-03-02T01:33:20;45.64;;;23.45;;
61473;SDS011;53694;49.784;30.150;2024-03-02T01:34:22;45.34;;;23.30;;
61473;SDS011;53694;49.784;30.150;2024-03-02T01:35:23;38.90;;;21.75;;
61473;SDS011;53694;49.784;30.150;2024-03-02T01:36:25;47.24;;;24.27;;
61473;SDS011;53694;49.784;30.150;2024-03-02T01:37:26;45.13;;;24.39;;
61473;SDS011;53694;49.784;30.150;2024-03-02T01:38:27;42.80;;;24.28;;
61473;SDS011;53694;49.784;30.150;2024-03-02T01:39:29;52.01;;;26.06;;
61473;SDS011;53694;49.784;30.150;2024-03-02T01:40:31;47.72;;;26.40;;
61473;SDS011;53694;49.784;30.150;2024-03-02T01:41:34;47.41;;;27.05;;
61473;SDS011;53694;49.784;30.150;2024-03-02T01:42:40;51.49;;;28.21;;
61473;SDS011;53694;49.784;30.150;2024-03-02T01:43:40;50.19;;;28.81;;
61473;SDS011;53694;49.784;30.150;2024-03-02T01:44:41;49.23;;;27.73;;
61473;SDS011;53694;49.784;30.150;2024-03-02T01:45:43;57.24;;;28.21;;
61473;SDS011;53694;49.784;30.150;2024-03-02T01:46:45;56.35;;;30.47;;
61473;SDS011;53694;49.784;30.150;2024-03-02T01:47:46;54.46;;;30.33;;
61473;SDS011;53694;49.784;30.150;2024-03-02T01:48:48;53.29;;;29.10;;
61473;SDS011;53694;49.784;30.150;2024-03-02T01:49:50;56.06;;;30.19;;
61473;SDS011;53694;49.784;30.150;2024-03-02T01:50:52;53.94;;;30.82;;
61473;SDS011;53694;49.784;30.150;2024-03-02T01:51:53;54.36;;;31.56;;
61473;SDS011;53694;49.784;30.150;2024-03-02T01:52:55;62.92;;;32.59;;
61473;SDS011;53694;49.784;30.150;2024-03-02T01:53:57;57.70;;;30.73;;
61473;SDS011;53694;49.784;30.150;2024-03-02T01:54:59;57.69;;;31.24;;
61473;SDS011;53694;49.784;30.150;2024-03-02T01:56:00;58.62;;;31.44;;
61473;SDS011;53694;49.784;30.150;2024-03-02T01:57:02;58.40;;;31.36;;
61473;SDS011;53694;49.784;30.150;2024-03-02T01:58:03;67.09;;;32.54;;
61473;SDS011;53694;49.784;30.150;2024-03-02T01:59:05;60.58;;;31.16;;
61473;SDS011;53694;49.784;30.150;2024-03-02T02:00:07;57.51;;;31.17;;
61473;SDS011;53694;49.784;30.150;2024-03-02T02:01:09;63.99;;;31.52;;
61473;SDS011;53694;49.784;30.150;2024-03-02T02:02:11;54.58;;;30.03;;
61473;SDS011;53694;49.784;30.150;2024-03-02T02:03:12;54.71;;;30.56;;
61473;SDS011;53694;49.784;30.150;2024-03-02T02:04:14;58.44;;;28.89;;
61473;SDS011;53694;49.784;30.150;2024-03-02T02:05:16;54.78;;;27.64;;
61473;SDS011;53694;49.784;30.150;2024-03-02T02:06:18;50.35;;;23.75;;
61473;SDS011;53694;49.784;30.150;2024-03-02T02:07:19;48.74;;;22.46;;
61473;SDS011;53694;49.784;30.150;2024-03-02T02:08:21;44.45;;;24.07;;
61473;SDS011;53694;49.784;30.150;2024-03-02T02:09:22;48.93;;;23.10;;
61473;SDS011;53694;49.784;30.150;2024-03-02T02:10:24;47.95;;;24.94;;
61473;SDS011;53694;49.784;30.150;2024-03-02T02:11:26;48.90;;;25.39;;
61473;SDS011;53694;49.784;30.150;2024-03-02T02:12:27;46.70;;;26.61;;
61473;SDS011;53694;49.784;30.150;2024-03-02T02:13:29;51.08;;;27.56;;
61473;SDS011;53694;49.784;30.150;2024-03-02T02:14:31;49.18;;;25.96;;
61473;SDS011;53694;49.784;30.150;2024-03-02T02:15:32;52.70;;;26.94;;
61473;SDS011;53694;49.784;30.150;2024-03-02T02:16:34;52.67;;;28.57;;
61473;SDS011;53694;49.784;30.150;2024-03-02T02:17:36;57.38;;;29.71;;
61473;SDS011;53694;49.784;30.150;2024-03-02T02:18:37;54.18;;;28.78;;
61473;SDS011;53694;49.784;30.150;2024-03-02T02:19:40;56.26;;;29.54;;
61473;SDS011;53694;49.784;30.150;2024-03-02T02:20:42;54.86;;;29.37;;
61473;SDS011;53694;49.784;30.150;2024-03-02T02:21:43;57.96;;;29.86;;
61473;SDS011;53694;49.784;30.150;2024-03-02T02:24:01;63.36;;;31.01;;
61473;SDS011;53694;49.784;30.150;2024-03-02T02:25:03;54.88;;;30.10;;
61473;SDS011;53694;49.784;30.150;2024-03-02T02:26:05;59.12;;;31.59;;
61473;SDS011;53694;49.784;30.150;2024-03-02T02:27:06;58.36;;;30.62;;
61473;SDS011;53694;49.784;30.150;2024-03-02T02:28:08;62.09;;;31.75;;
61473;SDS011;53694;49.784;30.150;2024-03-02T02:29:10;55.12;;;30.72;;
61473;SDS011;53694;49.784;30.150;2024-03-02T02:30:12;60.62;;;30.93;;
61473;SDS011;53694;49.784;30.150;2024-03-02T02:31:14;57.83;;;31.47;;
61473;SDS011;53694;49.784;30.150;2024-03-02T02:32:15;53.99;;;31.81;;
61473;SDS011;53694;49.784;30.150;2024-03-02T02:33:17;50.50;;;27.22;;
61473;SDS011;53694;49.784;30.150;2024-03-02T02:34:18;43.68;;;24.31;;
61473;SDS011;53694;49.784;30.150;2024-03-02T02:35:19;44.56;;;22.99;;
61473;SDS011;53694;49.784;30.150;2024-03-02T02:36:21;40.18;;;22.11;;
61473;SDS011;53694;49.784;30.150;2024-03-02T02:37:23;42.86;;;22.66;;
61473;SDS011;53694;49.784;30.150;2024-03-02T02:38:24;45.48;;;24.16;;
61473;SDS011;53694;49.784;30.150;2024-03-02T02:39:26;48.85;;;25.35;;
61473;SDS011;53694;49.784;30.150;2024-03-02T02:40:27;49.34;;;26.34;;
61473;SDS011;53694;49.784;30.150;2024-03-02T02:41:29;50.74;;;27.98;;
61473;SDS011;53694;49.784;30.150;2024-03-02T02:42:31;50.64;;;28.07;;
61473;SDS011;53694;49.784;30.150;2024-03-02T02:43:32;51.19;;;27.69;;
61473;SDS011;53694;49.784;30.150;2024-03-02T02:44:34;56.29;;;29.80;;
61473;SDS011;53694;49.784;30.150;2024-03-02T02:45:35;50.59;;;28.96;;
61473;SDS011;53694;49.784;30.150;2024-03-02T02:46:37;53.69;;;30.39;;
61473;SDS011;53694;49.784;30.150;2024-03-02T02:47:39;60.73;;;31.07;;
61473;SDS011;53694;49.784;30.150;2024-03-02T02:48:40;49.54;;;29.29;;
61473;SDS011;53694;49.784;30.150;2024-03-02T02:49:42;63.28;;;30.98;;
61473;SDS011;53694;49.784;30.150;2024-03-02T02:50:43;56.24;;;30.47;;
61473;SDS011;53694;49.784;30.150;2024-03-02T02:51:45;54.60;;;30.74;;
61473;SDS011;53694;49.784;30.150;2024-03-02T02:52:46;61.10;;;31.10;;
61473;SDS011;53694;49.784;30.150;2024-03-02T02:53:48;61.74;;;31.49;;
61473;SDS011;53694;49.784;30.150;2024-03-02T02:54:49;60.61;;;31.09;;
61473;SDS011;53694;49.784;30.150;2024-03-02T02:55:51;58.00;;;31.07;;
61473;SDS011;53694;49.784;30.150;2024-03-02T02:56:52;57.73;;;30.37;;
61473;SDS011;53694;49.784;30.150;2024-03-02T02:57:53;60.72;;;31.16;;
61473;SDS011;53694;49.784;30.150;2024-03-02T02:58:55;61.13;;;31.42;;
61473;SDS011;53694;49.784;30.150;2024-03-02T02:59:57;61.30;;;32.31;;
61473;SDS011;53694;49.784;30.150;2024-03-02T03:00:58;51.78;;;27.57;;
61473;SDS011;53694;49.784;30.150;2024-03-02T03:02:00;48.26;;;25.80;;
61473;SDS011;53694;49.784;30.150;2024-03-02T03:03:01;53.17;;;24.79;;
61473;SDS011;53694;49.784;30.150;2024-03-02T03:04:03;49.82;;;24.43;;
61473;SDS011;53694;49.784;30.150;2024-03-02T03:05:05;46.30;;;23.10;;
61473;SDS011;53694;49.784;30.150;2024-03-02T03:06:07;42.83;;;23.10;;
61473;SDS011;53694;49.784;30.150;2024-03-02T03:07:09;44.26;;;24.46;;
61473;SDS011;53694;49.784;30.150;2024-03-02T03:08:10;55.96;;;25.66;;
61473;SDS011;53694;49.784;30.150;2024-03-02T03:09:11;49.56;;;26.33;;
61473;SDS011;53694;49.784;30.150;2024-03-02T03:10:14;53.64;;;28.25;;
61473;SDS011;53694;49.784;30.150;2024-03-02T03:11:15;55.24;;;27.51;;
61473;SDS011;53694;49.784;30.150;2024-03-02T03:12:17;48.65;;;27.28;;
61473;SDS011;53694;49.784;30.150;2024-03-02T03:13:18;56.44;;;28.06;;
61473;SDS011;53694;49.784;30.150;2024-03-02T03:14:20;54.89;;;29.91;;
61473;SDS011;53694;49.784;30.150;2024-03-02T03:15:22;59.03;;;30.47;;
61473;SDS011;53694;49.784;30.150;2024-03-02T03:16:23;56.58;;;29.73;;
61473;SDS011;53694;49.784;30.150;2024-03-02T03:17:25;55.27;;;31.25;;
61473;SDS011;53694;49.784;30.150;2024-03-02T03:18:27;58.50;;;30.55;;
61473;SDS011;53694;49.784;30.150;2024-03-02T03:19:28;55.13;;;31.39;;
61473;SDS011;53694;49.784;30.150;2024-03-02T03:20:30;61.77;;;31.75;;
61473;SDS011;53694;49.784;30.150;2024-03-02T03:21:32;60.37;;;32.10;;
61473;SDS011;53694;49.784;30.150;2024-03-02T03:22:33;61.38;;;32.92;;
61473;SDS011;53694;49.784;30.150;2024-03-02T03:23:35;63.01;;;33.94;;
61473;SDS011;53694;49.784;30.150;2024-03-02T03:24:36;63.98;;;31.66;;
61473;SDS011;53694;49.784;30.150;2024-03-02T03:25:38;57.53;;;29.06;;
61473;SDS011;53694;49.784;30.150;2024-03-02T03:26:39;52.01;;;26.69;;
61473;SDS011;53694;49.784;30.150;2024-03-02T03:27:41;47.28;;;24.39;;
61473;SDS011;53694;49.784;30.150;2024-03-02T03:28:42;45.27;;;24.54;;
61473;SDS011;53694;49.784;30.150;2024-03-02T03:29:44;44.14;;;23.96;;
61473;SDS011;53694;49.784;30.150;2024-03-02T03:30:45;49.09;;;25.00;;
61473;SDS011;53694;49.784;30.150;2024-03-02T03:31:46;48.07;;;24.69;;
61473;SDS011;53694;49.784;30.150;2024-03-02T03:32:48;50.51;;;25.78;;
61473;SDS011;53694;49.784;30.150;2024-03-02T03:33:49;48.43;;;25.94;;
61473;SDS011;53694;49.784;30.150;2024-03-02T03:34:51;49.17;;;27.29;;
61473;SDS011;53694;49.784;30.150;2024-03-02T03:35:52;48.69;;;26.49;;
61473;SDS011;53694;49.784;30.150;2024-03-02T03:36:54;51.97;;;26.49;;
61473;SDS011;53694;49.784;30.150;2024-03-02T03:37:56;53.09;;;28.06;;
61473;SDS011;53694;49.784;30.150;2024-03-02T03:38:57;59.56;;;29.57;;
61473;SDS011;53694;49.784;30.150;2024-03-02T03:40:02;54.18;;;28.71;;
61473;SDS011;53694;49.784;30.150;2024-03-02T03:41:05;55.96;;;31.20;;
61473;SDS011;53694;49.784;30.150;2024-03-02T03:42:07;56.68;;;31.49;;
61473;SDS011;53694;49.784;30.150;2024-03-02T03:43:09;59.20;;;32.74;;
61473;SDS011;53694;49.784;30.150;2024-03-02T03:44:10;61.52;;;31.48;;
61473;SDS011;53694;49.784;30.150;2024-03-02T03:45:12;62.86;;;32.04;;
61473;SDS011;53694;49.784;30.150;2024-03-02T03:46:13;60.80;;;32.80;;
61473;SDS011;53694;49.784;30.150;2024-03-02T03:47:15;64.29;;;34.42;;
61473;SDS011;53694;49.784;30.150;2024-03-02T03:48:16;60.45;;;33.30;;
61473;SDS011;53694;49.784;30.150;2024-03-02T03:49:18;63.79;;;34.52;;
61473;SDS011;53694;49.784;30.150;2024-03-02T03:50:20;65.34;;;34.38;;
61473;SDS011;53694;49.784;30.150;2024-03-02T03:51:21;59.19;;;31.06;;
61473;SDS011;53694;49.784;30.150;2024-03-02T03:52:23;51.79;;;28.44;;
61473;SDS011;53694;49.784;30.150;2024-03-02T03:53:24;52.71;;;26.02;;
61473;SDS011;53694;49.784;30.150;2024-03-02T03:54:25;51.94;;;25.99;;
61473;SDS011;53694;49.784;30.150;2024-03-02T03:55:27;53.22;;;25.36;;
61473;SDS011;53694;49.784;30.150;2024-03-02T03:56:28;48.71;;;24.89;;
61473;SDS011;53694;49.784;30.150;2024-03-02T03:57:30;50.86;;;25.69;;
61473;SDS011;53694;49.784;30.150;2024-03-02T03:58:32;56.90;;;28.76;;
61473;SDS011;53694;49.784;30.150;2024-03-02T03:59:33;61.58;;;32.03;;
61473;SDS011;53694;49.784;30.150;2024-03-02T04:00:35;63.52;;;32.19;;
61473;SDS011;53694;49.784;30.150;2024-03-02T04:01:37;63.94;;;34.29;;
61473;SDS011;53694;49.784;30.150;2024-03-02T04:02:38;67.95;;;36.07;;
61473;SDS011;53694;49.784;30.150;2024-03-02T04:03:40;68.26;;;34.51;;
61473;SDS011;53694;49.784;30.150;2024-03-02T04:04:41;68.99;;;35.61;;
61473;SDS011;53694;49.784;30.150;2024-03-02T04:05:43;66.57;;;36.29;;
61473;SDS011;53694;49.784;30.150;2024-03-02T04:06:44;70.29;;;37.51;;
61473;SDS011;53694;49.784;30.150;2024-03-02T04:07:46;74.56;;;38.61;;
61473;SDS011;53694;49.784;30.150;2024-03-02T04:08:47;69.55;;;35.77;;
61473;SDS011;53694;49.784;30.150;2024-03-02T04:09:49;69.51;;;34.54;;
61473;SDS011;53694;49.784;30.150;2024-03-02T04:10:50;71.28;;;35.79;;
61473;SDS011;53694;49.784;30.150;2024-03-02T04:11:52;63.76;;;35.03;;
61473;SDS011;53694;49.784;30.150;2024-03-02T04:12:54;67.95;;;34.89;;
61473;SDS011;53694;49.784;30.150;2024-03-02T04:13:55;68.19;;;34.38;;
61473;SDS011;53694;49.784;30.150;2024-03-02T04:14:57;56.82;;;32.16;;
61473;SDS011;53694;49.784;30.150;2024-03-02T04:15:58;59.56;;;28.24;;
61473;SDS011;53694;49.784;30.150;2024-03-02T04:17:00;48.53;;;25.11;;
61473;SDS011;53694;49.784;30.150;2024-03-02T04:18:01;41.09;;;22.66;;
61473;SDS011;53694;49.784;30.150;2024-03-02T04:19:03;49.14;;;23.19;;
61473;SDS011;53694;49.784;30.150;2024-03-02T04:20:05;43.81;;;22.80;;
61473;SDS011;53694;49.784;30.150;2024-03-02T04:21:07;41.21;;;21.29;;
61473;SDS011;53694;49.784;30.150;2024-03-02T04:22:09;48.05;;;22.05;;
61473;SDS011;53694;49.784;30.150;2024-03-02T04:23:10;40.20;;;20.96;;
61473;SDS011;53694;49.784;30.150;2024-03-02T04:24:12;44.96;;;23.11;;
61473;SDS011;53694;49.784;30.150;2024-03-02T04:25:13;43.59;;;24.46;;
61473;SDS011;53694;49.784;30.150;2024-03-02T04:26:15;51.13;;;24.81;;
61473;SDS011;53694;49.784;30.150;2024-03-02T04:27:16;44.64;;;23.95;;
61473;SDS011;53694;49.784;30.150;2024-03-02T04:28:18;43.62;;;23.84;;
61473;SDS011;53694;49.784;30.150;2024-03-02T04:29:19;48.46;;;26.35;;
61473;SDS011;53694;49.784;30.150;2024-03-02T04:30:21;49.33;;;25.96;;
61473;SDS011;53694;49.784;30.150;2024-03-02T04:31:22;47.11;;;25.31;;
61473;SDS011;53694;49.784;30.150;2024-03-02T04:32:24;53.34;;;27.07;;
61473;SDS011;53694;49.784;30.150;2024-03-02T04:33:25;60.05;;;28.09;;
61473;SDS011;53694;49.784;30.150;2024-03-02T04:34:27;50.59;;;27.24;;
61473;SDS011;53694;49.784;30.150;2024-03-02T04:35:28;51.39;;;27.24;;
61473;SDS011;53694;49.784;30.150;2024-03-02T04:36:30;50.95;;;28.97;;
61473;SDS011;53694;49.784;30.150;2024-03-02T04:37:33;44.46;;;24.22;;
61473;SDS011;53694;49.784;30.150;2024-03-02T04:38:35;43.62;;;20.98;;
61473;SDS011;53694;49.784;30.150;2024-03-02T04:39:37;42.75;;;21.08;;
61473;SDS011;53694;49.784;30.150;2024-03-02T04:40:39;40.09;;;21.15;;
61473;SDS011;53694;49.784;30.150;2024-03-02T04:41:40;35.64;;;18.71;;
61473;SDS011;53694;49.784;30.150;2024-03-02T04:42:42;39.96;;;20.08;;
61473;SDS011;53694;49.784;30.150;2024-03-02T04:43:43;34.60;;;18.79;;
61473;SDS011;53694;49.784;30.150;2024-03-02T04:44:45;35.01;;;18.86;;
61473;SDS011;53694;49.784;30.150;2024-03-02T04:45:46;34.06;;;18.54;;
61473;SDS011;53694;49.784;30.150;2024-03-02T04:46:48;42.27;;;19.77;;
61473;SDS011;53694;49.784;30.150;2024-03-02T04:47:49;39.35;;;21.40;;
61473;SDS011;53694;49.784;30.150;2024-03-02T04:48:51;36.55;;;21.06;;
61473;SDS011;53694;49.784;30.150;2024-03-02T04:49:52;39.27;;;22.56;;
61473;SDS011;53694;49.784;30.150;2024-03-02T04:50:54;42.48;;;23.69;;
61473;SDS011;53694;49.784;30.150;2024-03-02T04:51:56;42.82;;;23.99;;
61473;SDS011;53694;49.784;30.150;2024-03-02T04:52:57;45.20;;;24.95;;
61473;SDS011;53694;49.784;30.150;2024-03-02T04:53:59;46.83;;;25.17;;
61473;SDS011;53694;49.784;30.150;2024-03-02T04:55:00;51.41;;;27.31;;
61473;SDS011;53694;49.784;30.150;2024-03-02T04:56:02;47.15;;;25.89;;
61473;SDS011;53694;49.784;30.150;2024-03-02T04:57:04;50.67;;;26.55;;
61473;SDS011;53694;49.784;30.150;2024-03-02T04:58:05;48.13;;;26.32;;
61473;SDS011;53694;49.784;30.150;2024-03-02T04:59:07;44.35;;;22.88;;
61473;SDS011;53694;49.784;30.150;2024-03-02T05:00:09;37.27;;;21.49;;
61473;SDS011;53694;49.784;30.150;2024-03-02T05:01:11;43.90;;;19.59;;
61473;SDS011;53694;49.784;30.150;2024-03-02T05:02:12;33.72;;;18.90;;
61473;SDS011;53694;49.784;30.150;2024-03-02T05:03:14;36.62;;;18.65;;
61473;SDS011;53694;49.784;30.150;2024-03-02T05:04:15;34.21;;;18.51;;
61473;SDS011;53694;49.784;30.150;2024-03-02T05:05:17;36.66;;;18.60;;
61473;SDS011;53694;49.784;30.150;2024-03-02T05:06:18;32.21;;;18.04;;
61473;SDS011;53694;49.784;30.150;2024-03-02T05:07:20;33.86;;;18.44;;
61473;SDS011;53694;49.784;30.150;2024-03-02T05:08:21;34.09;;;18.13;;
61473;SDS011;53694;49.784;30.150;2024-03-02T05:09:23;36.94;;;18.56;;
61473;SDS011;53694;49.784;30.150;2024-03-02T05:10:24;39.27;;;20.46;;
61473;SDS011;53694;49.784;30.150;2024-03-02T05:11:26;42.51;;;22.39;;
61473;SDS011;53694;49.784;30.150;2024-03-02T05:12:27;36.13;;;21.51;;
61473;SDS011;53694;49.784;30.150;2024-03-02T05:13:28;40.01;;;20.99;;
61473;SDS011;53694;49.784;30.150;2024-03-02T05:14:30;44.07;;;22.69;;
61473;SDS011;53694;49.784;30.150;2024-03-02T05:15:31;41.89;;;23.32;;
61473;SDS011;53694;49.784;30.150;2024-03-02T05:16:33;42.40;;;23.11;;
61473;SDS011;53694;49.784;30.150;2024-03-02T05:17:36;43.03;;;24.03;;
61473;SDS011;53694;49.784;30.150;2024-03-02T05:18:38;45.30;;;24.13;;
61473;SDS011;53694;49.784;30.150;2024-03-02T05:19:39;45.81;;;23.41;;
61473;SDS011;53694;49.784;30.150;2024-03-02T05:20:41;42.10;;;23.98;;
61473;SDS011;53694;49.784;30.150;2024-03-02T05:21:42;41.32;;;22.66;;
61473;SDS011;53694;49.784;30.150;2024-03-02T05:22:44;41.10;;;20.13;;
61473;SDS011;53694;49.784;30.150;2024-03-02T05:23:45;34.46;;;18.54;;
61473;SDS011;53694;49.784;30.150;2024-03-02T05:24:47;34.16;;;18.46;;
61473;SDS011;53694;49.784;30.150;2024-03-02T05:25:48;40.49;;;18.22;;
61473;SDS011;53694;49.784;30.150;2024-03-02T05:26:50;29.49;;;16.72;;
61473;SDS011;53694;49.784;30.150;2024-03-02T05:27:51;43.13;;;23.95;;
61473;SDS011;53694;49.784;30.150;2024-03-02T05:28:53;33.91;;;17.03;;
61473;SDS011;53694;49.784;30.150;2024-03-02T05:29:54;30.04;;;18.98;;
61473;SDS011;53694;49.784;30.150;2024-03-02T05:30:56;38.92;;;20.44;;
61473;SDS011;53694;49.784;30.150;2024-03-02T05:31:57;35.46;;;19.08;;
61473;SDS011;53694;49.784;30.150;2024-03-02T05:32:59;35.53;;;19.34;;
61473;SDS011;53694;49.784;30.150;2024-03-02T05:34:00;38.46;;;19.24;;
61473;SDS011;53694;49.784;30.150;2024-03-02T05:35:02;37.34;;;20.85;;
61473;SDS011;53694;49.784;30.150;2024-03-02T05:36:04;38.40;;;21.19;;
61473;SDS011;53694;49.784;30.150;2024-03-02T05:37:05;41.79;;;21.87;;
61473;SDS011;53694;49.784;30.150;2024-03-02T05:38:07;37.94;;;21.21;;
61473;SDS011;53694;49.784;30.150;2024-03-02T05:39:08;42.29;;;23.34;;
61473;SDS011;53694;49.784;30.150;2024-03-02T05:40:10;45.30;;;22.50;;
61473;SDS011;53694;49.784;30.150;2024-03-02T05:41:11;44.43;;;23.65;;
61473;SDS011;53694;49.784;30.150;2024-03-02T05:42:13;37.48;;;20.99;;
61473;SDS011;53694;49.784;30.150;2024-03-02T05:43:14;37.58;;;18.84;;
61473;SDS011;53694;49.784;30.150;2024-03-02T05:44:16;35.07;;;18.92;;
61473;SDS011;53694;49.784;30.150;2024-03-02T05:45:17;34.23;;;18.17;;
61473;SDS011;53694;49.784;30.150;2024-03-02T05:46:19;33.58;;;17.98;;
61473;SDS011;53694;49.784;30.150;2024-03-02T05:47:20;29.19;;;17.51;;
61473;SDS011;53694;49.784;30.150;2024-03-02T05:48:22;31.06;;;16.89;;
61473;SDS011;53694;49.784;30.150;2024-03-02T05:49:23;29.96;;;16.01;;
61473;SDS011;53694;49.784;30.150;2024-03-02T05:50:25;40.05;;;18.69;;
61473;SDS011;53694;49.784;30.150;2024-03-02T05:51:26;35.41;;;18.28;;
61473;SDS011;53694;49.784;30.150;2024-03-02T05:52:28;36.37;;;18.20;;
61473;SDS011;53694;49.784;30.150;2024-03-02T05:53:29;43.53;;;21.92;;
61473;SDS011;53694;49.784;30.150;2024-03-02T05:54:30;44.00;;;23.25;;
61473;SDS011;53694;49.784;30.150;2024-03-02T05:55:34;37.67;;;20.82;;
61473;SDS011;53694;49.784;30.150;2024-03-02T05:56:35;41.31;;;24.04;;
61473;SDS011;53694;49.784;30.150;2024-03-02T05:57:37;55.14;;;29.88;;
61473;SDS011;53694;49.784;30.150;2024-03-02T05:58:38;40.29;;;22.97;;
61473;SDS011;53694;49.784;30.150;2024-03-02T05:59:41;42.23;;;23.76;;
61473;SDS011;53694;49.784;30.150;2024-03-02T06:00:43;49.05;;;28.03;;